sensor_id;sensor_type;location;lat;lon;timestamp;pressure;altitude;pressure_sealevel;temperature;humidity
29417;BME280;28421;51.030;4.006;2023-03-21T00:00:58;101667.25;;;10.69;77.20
29417;BME280;28421;51.030;4.006;2023-03-21T00:03:24;101676.88;;;10.72;76.93
29417;BME280;28421;51.030;4.006;2023-03-21T00:05:51;101675.19;;;10.71;76.83
29417;BME280;28421;51.030;4.006;2023-03-21T00:08:22;101641.91;;;10.54;76.94
29417;BME280;28421;51.030;4.006;2023-03-21T00:10:56;101683.34;;;10.79;76.98
29417;BME280;28421;51.030;4.006;2023-03-21T00:13:22;101680.50;;;10.81;76.86
29417;BME280;28421;51.030;4.006;2023-03-21T00:15:47;101659.06;;;10.71;76.95
29417;BME280;28421;51.030;4.006;2023-03-21T00:18:22;101669.19;;;10.77;76.99
29417;BME280;28421;51.030;4.006;2023-03-21T00:21:04;101651.13;;;10.69;76.88
29417;BME280;28421;51.030;4.006;2023-03-21T00:23:31;101668.28;;;10.68;77.06
29417;BME280;28421;51.030;4.006;2023-03-21T00:25:57;101628.06;;;10.49;77.15
29417;BME280;28421;51.030;4.006;2023-03-21T00:28:24;101652.13;;;10.68;76.96
29417;BME280;28421;51.030;4.006;2023-03-21T00:30:55;101646.22;;;10.65;77.05
29417;BME280;28421;51.030;4.006;2023-03-21T05:35:26;101452.16;;;9.98;82.03
29417;BME280;28421;51.030;4.006;2023-03-21T05:37:54;101434.75;;;10.02;82.75
29417;BME280;28421;51.030;4.006;2023-03-21T05:40:21;101413.09;;;9.86;83.17
29417;BME280;28421;51.030;4.006;2023-03-21T05:42:47;101431.38;;;10.00;83.53
29417;BME280;28421;51.030;4.006;2023-03-21T05:45:18;101395.94;;;9.79;83.74
29417;BME280;28421;51.030;4.006;2023-03-21T05:47:44;101386.34;;;9.76;84.16
29417;BME280;28421;51.030;4.006;2023-03-21T05:50:12;101387.94;;;9.87;84.11
29417;BME280;28421;51.030;4.006;2023-03-21T05:52:40;101393.63;;;9.84;84.90
29417;BME280;28421;51.030;4.006;2023-03-21T05:55:10;101384.19;;;9.80;84.90
29417;BME280;28421;51.030;4.006;2023-03-21T05:57:36;101393.84;;;9.90;84.59
29417;BME280;28421;51.030;4.006;2023-03-21T06:00:08;101381.50;;;9.80;84.99
29417;BME280;28421;51.030;4.006;2023-03-21T06:02:53;101376.69;;;9.83;85.25
29417;BME280;28421;51.030;4.006;2023-03-21T06:05:35;101371.97;;;9.85;85.01
29417;BME280;28421;51.030;4.006;2023-03-21T06:08:01;101382.41;;;9.88;85.44
29417;BME280;28421;51.030;4.006;2023-03-21T06:10:26;101389.72;;;9.96;85.23
29417;BME280;28421;51.030;4.006;2023-03-21T06:12:52;101406.88;;;10.03;85.18
29417;BME280;28421;51.030;4.006;2023-03-21T06:15:36;101375.75;;;9.92;85.07
29417;BME280;28421;51.030;4.006;2023-03-21T06:18:15;101359.56;;;9.84;84.52
29417;BME280;28421;51.030;4.006;2023-03-21T06:20:52;101380.88;;;10.04;83.74
29417;BME280;28421;51.030;4.006;2023-03-21T06:23:22;101351.88;;;9.89;83.89
29417;BME280;28421;51.030;4.006;2023-03-21T06:25:48;101366.13;;;10.08;83.86
29417;BME280;28421;51.030;4.006;2023-03-21T06:28:14;101368.91;;;9.98;83.58
29417;BME280;28421;51.030;4.006;2023-03-21T06:30:40;101385.09;;;10.06;83.99
29417;BME280;28421;51.030;4.006;2023-03-21T06:33:13;101408.03;;;10.18;84.16
29417;BME280;28421;51.030;4.006;2023-03-21T06:35:39;101363.91;;;9.85;84.82
29417;BME280;28421;51.030;4.006;2023-03-21T06:38:05;101353.72;;;9.89;84.63
29417;BME280;28421;51.030;4.006;2023-03-21T06:40:32;101400.78;;;10.19;84.57
29417;BME280;28421;51.030;4.006;2023-03-21T06:42:57;101362.28;;;10.10;84.53
29417;BME280;28421;51.030;4.006;2023-03-21T06:45:23;101353.41;;;9.92;84.54
29417;BME280;28421;51.030;4.006;2023-03-21T06:47:49;101402.44;;;10.30;84.49
29417;BME280;28421;51.030;4.006;2023-03-21T06:50:26;101382.81;;;10.19;84.42
29417;BME280;28421;51.030;4.006;2023-03-21T06:52:51;101388.63;;;10.25;84.52
29417;BME280;28421;51.030;4.006;2023-03-21T06:55:18;101373.34;;;10.25;84.34
29417;BME280;28421;51.030;4.006;2023-03-21T06:57:45;101352.84;;;10.06;84.35
29417;BME280;28421;51.030;4.006;2023-03-21T07:00:11;101363.88;;;10.21;84.29
29417;BME280;28421;51.030;4.006;2023-03-21T07:02:42;101374.00;;;10.27;84.19
29417;BME280;28421;51.030;4.006;2023-03-21T07:05:13;101378.59;;;10.35;84.23
29417;BME280;28421;51.030;4.006;2023-03-21T07:07:39;101358.44;;;10.31;83.96
29417;BME280;28421;51.030;4.006;2023-03-21T07:10:07;101391.16;;;10.52;83.65
29417;BME280;28421;51.030;4.006;2023-03-21T07:12:41;101374.59;;;10.39;83.26
29417;BME280;28421;51.030;4.006;2023-03-21T07:15:15;101350.88;;;10.34;83.14
29417;BME280;28421;51.030;4.006;2023-03-21T07:17:42;101361.09;;;10.31;83.63
29417;BME280;28421;51.030;4.006;2023-03-21T07:20:08;101383.03;;;10.44;83.60
29417;BME280;28421;51.030;4.006;2023-03-21T07:22:35;101378.66;;;10.43;83.64
29417;BME280;28421;51.030;4.006;2023-03-21T07:25:00;101350.09;;;10.42;83.28
29417;BME280;28421;51.030;4.006;2023-03-21T07:27:26;101337.41;;;10.26;83.07
29417;BME280;28421;51.030;4.006;2023-03-21T07:29:51;101354.25;;;10.36;82.81
29417;BME280;28421;51.030;4.006;2023-03-21T07:32:17;101367.69;;;10.62;82.91
29417;BME280;28421;51.030;4.006;2023-03-21T07:34:42;101329.59;;;10.41;82.16
29417;BME280;28421;51.030;4.006;2023-03-21T07:37:08;101359.25;;;10.57;82.24
29417;BME280;28421;51.030;4.006;2023-03-21T07:39:34;101354.97;;;10.73;81.90
29417;BME280;28421;51.030;4.006;2023-03-21T07:42:00;101332.94;;;10.69;81.64
29417;BME280;28421;51.030;4.006;2023-03-21T07:44:30;101383.00;;;10.96;80.97
29417;BME280;28421;51.030;4.006;2023-03-21T07:47:01;101303.81;;;10.64;80.70
29417;BME280;28421;51.030;4.006;2023-03-21T07:49:27;101333.69;;;10.87;80.26
29417;BME280;28421;51.030;4.006;2023-03-21T07:51:52;101348.66;;;10.90;80.07
29417;BME280;28421;51.030;4.006;2023-03-21T07:54:18;101377.19;;;11.17;79.92
29417;BME280;28421;51.030;4.006;2023-03-21T07:56:46;101346.38;;;11.11;79.48
29417;BME280;28421;51.030;4.006;2023-03-21T07:59:11;101357.50;;;11.16;78.19
29417;BME280;28421;51.030;4.006;2023-03-21T08:01:37;101343.19;;;11.08;78.23
29417;BME280;28421;51.030;4.006;2023-03-21T08:04:02;101353.00;;;11.25;77.67
29417;BME280;28421;51.030;4.006;2023-03-21T08:06:27;101381.28;;;11.37;77.26
29417;BME280;28421;51.030;4.006;2023-03-21T08:08:53;101342.75;;;11.29;77.33
29417;BME280;28421;51.030;4.006;2023-03-21T08:11:19;101344.44;;;11.46;77.18
29417;BME280;28421;51.030;4.006;2023-03-21T08:13:46;101355.38;;;11.53;76.08
29417;BME280;28421;51.030;4.006;2023-03-21T08:16:11;101342.81;;;11.61;75.85
29417;BME280;28421;51.030;4.006;2023-03-21T08:18:37;101339.94;;;11.63;75.40
29417;BME280;28421;51.030;4.006;2023-03-21T08:21:02;101303.75;;;11.57;74.46
29417;BME280;28421;51.030;4.006;2023-03-21T08:23:28;101324.44;;;11.65;74.64
29417;BME280;28421;51.030;4.006;2023-03-21T08:25:54;101346.72;;;11.83;74.48
29417;BME280;28421;51.030;4.006;2023-03-21T08:28:21;101328.69;;;11.84;74.28
29417;BME280;28421;51.030;4.006;2023-03-21T08:30:47;101329.34;;;11.94;74.06
29417;BME280;28421;51.030;4.006;2023-03-21T08:33:14;101306.28;;;11.91;73.10
29417;BME280;28421;51.030;4.006;2023-03-21T08:35:40;101308.97;;;12.08;72.81
29417;BME280;28421;51.030;4.006;2023-03-21T08:38:06;101300.53;;;12.11;72.99
29417;BME280;28421;51.030;4.006;2023-03-21T08:40:32;101317.00;;;12.32;72.20
29417;BME280;28421;51.030;4.006;2023-03-21T08:42:58;101295.31;;;12.09;71.54
29417;BME280;28421;51.030;4.006;2023-03-21T08:45:24;101290.56;;;12.28;70.99
29417;BME280;28421;51.030;4.006;2023-03-21T08:47:51;101328.41;;;12.59;71.02
29417;BME280;28421;51.030;4.006;2023-03-21T08:50:21;101317.72;;;12.74;70.56
29417;BME280;28421;51.030;4.006;2023-03-21T08:52:48;101290.69;;;12.42;70.47
29417;BME280;28421;51.030;4.006;2023-03-21T08:55:15;101268.13;;;12.35;70.18
29417;BME280;28421;51.030;4.006;2023-03-21T08:57:41;101299.94;;;12.48;70.41
29417;BME280;28421;51.030;4.006;2023-03-21T09:00:08;101276.34;;;12.50;69.91
29417;BME280;28421;51.030;4.006;2023-03-21T09:02:42;101296.38;;;12.56;69.64
29417;BME280;28421;51.030;4.006;2023-03-21T09:05:10;101300.03;;;12.71;70.12
29417;BME280;28421;51.030;4.006;2023-03-21T09:07:39;101318.81;;;12.96;69.69
29417;BME280;28421;51.030;4.006;2023-03-21T09:10:07;101287.91;;;12.67;69.23
29417;BME280;28421;51.030;4.006;2023-03-21T09:12:34;101307.38;;;12.85;69.68
29417;BME280;28421;51.030;4.006;2023-03-21T09:15:00;101296.47;;;12.79;68.89
29417;BME280;28421;51.030;4.006;2023-03-21T09:17:30;101303.56;;;12.72;69.43
29417;BME280;28421;51.030;4.006;2023-03-21T09:19:57;101304.03;;;12.83;69.37
29417;BME280;28421;51.030;4.006;2023-03-21T09:22:23;101334.84;;;12.89;69.56
29417;BME280;28421;51.030;4.006;2023-03-21T09:24:49;101305.44;;;12.63;69.18
29417;BME280;28421;51.030;4.006;2023-03-21T09:27:15;101312.00;;;12.68;69.28
29417;BME280;28421;51.030;4.006;2023-03-21T09:29:48;101325.50;;;12.60;68.40
29417;BME280;28421;51.030;4.006;2023-03-21T09:32:14;101296.56;;;12.46;68.26
29417;BME280;28421;51.030;4.006;2023-03-21T09:34:42;101340.13;;;12.82;68.89
29417;BME280;28421;51.030;4.006;2023-03-21T09:37:09;101296.78;;;12.76;68.53
29417;BME280;28421;51.030;4.006;2023-03-21T09:39:41;101308.09;;;12.79;67.97
29417;BME280;28421;51.030;4.006;2023-03-21T09:42:32;101321.59;;;12.71;68.21
29417;BME280;28421;51.030;4.006;2023-03-21T09:45:11;101327.75;;;12.96;68.08
29417;BME280;28421;51.030;4.006;2023-03-21T09:47:43;101277.59;;;12.71;68.25
29417;BME280;28421;51.030;4.006;2023-03-21T09:50:32;101284.91;;;12.62;68.03
29417;BME280;28421;51.030;4.006;2023-03-21T09:53:03;101336.41;;;12.83;67.65
29417;BME280;28421;51.030;4.006;2023-03-21T09:55:33;101306.38;;;12.86;67.48
29417;BME280;28421;51.030;4.006;2023-03-21T09:58:14;101319.59;;;13.04;67.17
29417;BME280;28421;51.030;4.006;2023-03-21T10:00:47;101297.41;;;12.94;67.17
29417;BME280;28421;51.030;4.006;2023-03-21T10:03:27;101325.75;;;13.29;66.37
29417;BME280;28421;51.030;4.006;2023-03-21T10:05:55;101325.25;;;13.17;65.60
29417;BME280;28421;51.030;4.006;2023-03-21T10:08:45;101284.69;;;13.03;66.90
29417;BME280;28421;51.030;4.006;2023-03-21T10:11:17;101283.41;;;12.90;67.11
29417;BME280;28421;51.030;4.006;2023-03-21T10:16:29;101281.28;;;13.40;66.06
29417;BME280;28421;51.030;4.006;2023-03-21T10:18:56;101275.63;;;13.27;65.69
29417;BME280;28421;51.030;4.006;2023-03-21T10:21:25;101301.00;;;13.63;65.84
29417;BME280;28421;51.030;4.006;2023-03-21T10:23:54;101289.00;;;13.66;65.80
29417;BME280;28421;51.030;4.006;2023-03-21T10:26:22;101290.34;;;13.16;65.11
29417;BME280;28421;51.030;4.006;2023-03-21T10:28:48;101302.38;;;13.05;65.16
29417;BME280;28421;51.030;4.006;2023-03-21T10:31:17;101327.31;;;13.24;65.71
29417;BME280;28421;51.030;4.006;2023-03-21T10:33:47;101314.00;;;13.06;65.71
29417;BME280;28421;51.030;4.006;2023-03-21T10:36:19;101341.28;;;12.88;66.28
29417;BME280;28421;51.030;4.006;2023-03-21T10:38:49;101308.66;;;12.66;66.43
29417;BME280;28421;51.030;4.006;2023-03-21T10:41:17;101279.59;;;12.77;66.35
29417;BME280;28421;51.030;4.006;2023-03-21T10:43:44;101315.63;;;12.92;65.39
29417;BME280;28421;51.030;4.006;2023-03-21T10:46:15;101340.91;;;12.99;65.38
29417;BME280;28421;51.030;4.006;2023-03-21T10:48:42;101331.28;;;12.57;65.33
29417;BME280;28421;51.030;4.006;2023-03-21T10:51:27;101326.94;;;12.40;65.73
29417;BME280;28421;51.030;4.006;2023-03-21T10:53:58;101327.41;;;12.43;65.50
29417;BME280;28421;51.030;4.006;2023-03-21T10:56:35;101343.06;;;12.56;65.07
29417;BME280;28421;51.030;4.006;2023-03-21T10:59:01;101328.91;;;12.54;66.18
29417;BME280;28421;51.030;4.006;2023-03-21T11:01:36;101332.72;;;12.76;65.32
29417;BME280;28421;51.030;4.006;2023-03-21T11:04:26;101343.91;;;13.04;65.54
29417;BME280;28421;51.030;4.006;2023-03-21T11:06:55;101308.38;;;12.45;65.41
29417;BME280;28421;51.030;4.006;2023-03-21T11:09:23;101289.84;;;12.42;66.39
29417;BME280;28421;51.030;4.006;2023-03-21T11:12:03;101333.25;;;12.72;66.29
29417;BME280;28421;51.030;4.006;2023-03-21T11:14:40;101334.44;;;13.08;65.93
29417;BME280;28421;51.030;4.006;2023-03-21T11:19:58;101311.44;;;13.43;64.62
29417;BME280;28421;51.030;4.006;2023-03-21T11:22:28;101316.50;;;13.15;63.82
29417;BME280;28421;51.030;4.006;2023-03-21T11:24:59;101325.81;;;13.44;63.76
29417;BME280;28421;51.030;4.006;2023-03-21T11:27:27;101322.28;;;13.66;63.84
29417;BME280;28421;51.030;4.006;2023-03-21T11:29:55;101319.44;;;13.60;63.78
29417;BME280;28421;51.030;4.006;2023-03-21T11:32:40;101322.16;;;13.83;63.43
29417;BME280;28421;51.030;4.006;2023-03-21T11:35:16;101295.13;;;13.83;63.02
29417;BME280;28421;51.030;4.006;2023-03-21T11:37:44;101307.84;;;14.12;62.88
29417;BME280;28421;51.030;4.006;2023-03-21T11:40:26;101320.75;;;13.87;62.98
29417;BME280;28421;51.030;4.006;2023-03-21T11:42:54;101277.78;;;13.77;62.92
29417;BME280;28421;51.030;4.006;2023-03-21T11:45:23;101276.03;;;13.99;63.27
29417;BME280;28421;51.030;4.006;2023-03-21T11:47:52;101324.28;;;14.10;63.67
29417;BME280;28421;51.030;4.006;2023-03-21T11:53:09;101320.00;;;14.31;62.86
29417;BME280;28421;51.030;4.006;2023-03-21T12:04:54;101307.81;;;14.35;63.05
29417;BME280;28421;51.030;4.006;2023-03-21T12:13:14;101265.69;;;14.47;61.88
29417;BME280;28421;51.030;4.006;2023-03-21T12:16:26;101288.88;;;14.64;62.72
29417;BME280;28421;51.030;4.006;2023-03-21T12:19:02;101230.84;;;14.23;62.41
29417;BME280;28421;51.030;4.006;2023-03-21T12:22:13;101265.25;;;14.58;62.09
29417;BME280;28421;51.030;4.006;2023-03-21T12:24:55;101232.97;;;14.42;61.10
29417;BME280;28421;51.030;4.006;2023-03-21T12:27:28;101275.72;;;14.61;61.38
29417;BME280;28421;51.030;4.006;2023-03-21T12:35:47;101263.59;;;14.57;60.98
29417;BME280;28421;51.030;4.006;2023-03-21T12:46:38;101221.88;;;14.37;61.50
29417;BME280;28421;51.030;4.006;2023-03-21T12:49:20;101265.22;;;14.14;63.30
29417;BME280;28421;51.030;4.006;2023-03-21T12:51:51;101252.47;;;14.08;63.37
29417;BME280;28421;51.030;4.006;2023-03-21T12:54:33;101236.41;;;13.91;63.78
29417;BME280;28421;51.030;4.006;2023-03-21T12:57:11;101231.53;;;13.72;63.60
29417;BME280;28421;51.030;4.006;2023-03-21T13:05:00;101255.16;;;14.08;64.12
29417;BME280;28421;51.030;4.006;2023-03-21T13:07:33;101219.06;;;13.86;63.94
29417;BME280;28421;51.030;4.006;2023-03-21T13:10:03;101224.03;;;14.12;63.53
29417;BME280;28421;51.030;4.006;2023-03-21T13:12:47;101198.84;;;13.97;63.74
29417;BME280;28421;51.030;4.006;2023-03-21T13:15:32;101242.88;;;14.20;64.50
29417;BME280;28421;51.030;4.006;2023-03-21T13:20:46;101212.56;;;14.39;63.69
29417;BME280;28421;51.030;4.006;2023-03-21T13:23:13;101216.66;;;14.35;63.74
29417;BME280;28421;51.030;4.006;2023-03-21T13:25:45;101245.06;;;14.90;63.85
29417;BME280;28421;51.030;4.006;2023-03-21T13:28:19;101211.34;;;14.57;63.16
29417;BME280;28421;51.030;4.006;2023-03-21T13:30:45;101205.53;;;14.45;63.48
29417;BME280;28421;51.030;4.006;2023-03-21T13:33:15;101211.06;;;14.37;63.95
29417;BME280;28421;51.030;4.006;2023-03-21T13:35:43;101227.91;;;14.39;64.16
29417;BME280;28421;51.030;4.006;2023-03-21T13:38:21;101206.03;;;13.89;65.04
29417;BME280;28421;51.030;4.006;2023-03-21T13:40:51;101186.91;;;13.91;65.34
29417;BME280;28421;51.030;4.006;2023-03-21T13:56:54;101173.00;;;13.27;68.68
29417;BME280;28421;51.030;4.006;2023-03-21T14:04:37;101227.91;;;13.42;70.35
29417;BME280;28421;51.030;4.006;2023-03-21T14:07:21;101189.72;;;13.22;70.58
29417;BME280;28421;51.030;4.006;2023-03-21T14:09:53;101199.94;;;13.35;70.64
29417;BME280;28421;51.030;4.006;2023-03-21T14:12:27;101216.06;;;13.66;70.92
29417;BME280;28421;51.030;4.006;2023-03-21T14:14:58;101192.28;;;13.24;73.21
29417;BME280;28421;51.030;4.006;2023-03-21T14:17:28;101223.03;;;13.60;72.93
29417;BME280;28421;51.030;4.006;2023-03-21T14:19:58;101176.09;;;13.38;73.23
29417;BME280;28421;51.030;4.006;2023-03-21T14:22:24;101227.25;;;13.78;73.06
29417;BME280;28421;51.030;4.006;2023-03-21T14:24:58;101200.06;;;13.41;74.04
29417;BME280;28421;51.030;4.006;2023-03-21T14:27:28;101228.75;;;13.42;76.13
29417;BME280;28421;51.030;4.006;2023-03-21T14:29:55;101233.03;;;13.37;76.48
29417;BME280;28421;51.030;4.006;2023-03-21T14:32:24;101214.28;;;13.12;77.08
29417;BME280;28421;51.030;4.006;2023-03-21T14:34:53;101233.03;;;13.06;78.21
29417;BME280;28421;51.030;4.006;2023-03-21T14:37:31;101209.75;;;12.82;79.17
29417;BME280;28421;51.030;4.006;2023-03-21T14:40:02;101233.66;;;13.16;78.26
29417;BME280;28421;51.030;4.006;2023-03-21T14:42:34;101195.34;;;12.89;78.50
29417;BME280;28421;51.030;4.006;2023-03-21T14:45:13;101198.72;;;12.91;78.12
29417;BME280;28421;51.030;4.006;2023-03-21T14:47:39;101221.53;;;13.12;78.47
29417;BME280;28421;51.030;4.006;2023-03-21T14:50:08;101193.47;;;12.98;77.61
29417;BME280;28421;51.030;4.006;2023-03-21T14:52:35;101189.84;;;13.06;77.14
29417;BME280;28421;51.030;4.006;2023-03-21T14:55:05;101204.44;;;13.42;76.57
29417;BME280;28421;51.030;4.006;2023-03-21T14:57:36;101172.00;;;13.28;76.13
29417;BME280;28421;51.030;4.006;2023-03-21T15:00:05;101168.63;;;13.26;77.19
29417;BME280;28421;51.030;4.006;2023-03-21T15:02:39;101206.94;;;13.82;76.13
29417;BME280;28421;51.030;4.006;2023-03-21T15:05:25;101148.47;;;13.51;75.78
29417;BME280;28421;51.030;4.006;2023-03-21T15:07:56;101173.28;;;13.84;74.96
29417;BME280;28421;51.030;4.006;2023-03-21T15:10:23;101189.72;;;13.83;74.97
29417;BME280;28421;51.030;4.006;2023-03-21T15:12:54;101189.63;;;13.38;76.79
29417;BME280;28421;51.030;4.006;2023-03-21T15:15:21;101200.25;;;13.78;75.49
29417;BME280;28421;51.030;4.006;2023-03-21T15:17:49;101181.28;;;13.63;75.01
29417;BME280;28421;51.030;4.006;2023-03-21T15:20:18;101153.09;;;13.28;75.42
29417;BME280;28421;51.030;4.006;2023-03-21T15:22:51;101185.59;;;13.34;76.12
29417;BME280;28421;51.030;4.006;2023-03-21T15:25:21;101157.38;;;13.14;76.31
29417;BME280;28421;51.030;4.006;2023-03-21T15:27:48;101151.69;;;13.09;76.29
29417;BME280;28421;51.030;4.006;2023-03-21T15:30:20;101147.50;;;13.06;76.02
29417;BME280;28421;51.030;4.006;2023-03-21T15:32:46;101191.38;;;13.31;76.13
29417;BME280;28421;51.030;4.006;2023-03-21T15:35:19;101123.03;;;12.85;76.93
29417;BME280;28421;51.030;4.006;2023-03-21T15:37:53;101184.00;;;13.25;76.88
29417;BME280;28421;51.030;4.006;2023-03-21T15:40:24;101171.53;;;13.24;76.60
29417;BME280;28421;51.030;4.006;2023-03-21T15:42:50;101186.56;;;13.41;76.34
29417;BME280;28421;51.030;4.006;2023-03-21T15:52:52;101156.66;;;13.43;75.43
29417;BME280;28421;51.030;4.006;2023-03-21T15:55:52;101192.53;;;13.52;75.10
29417;BME280;28421;51.030;4.006;2023-03-21T15:58:26;101189.03;;;13.66;75.30
29417;BME280;28421;51.030;4.006;2023-03-21T16:00:56;101175.00;;;13.85;74.61
29417;BME280;28421;51.030;4.006;2023-03-21T16:03:27;101158.19;;;13.75;74.21
29417;BME280;28421;51.030;4.006;2023-03-21T16:11:41;101188.13;;;13.88;73.80
29417;BME280;28421;51.030;4.006;2023-03-21T16:14:09;101183.44;;;13.97;73.05
29417;BME280;28421;51.030;4.006;2023-03-21T16:16:35;101143.19;;;13.73;72.58
29417;BME280;28421;51.030;4.006;2023-03-21T16:19:01;101119.91;;;13.57;71.92
29417;BME280;28421;51.030;4.006;2023-03-21T16:21:28;101132.66;;;13.63;72.15
29417;BME280;28421;51.030;4.006;2023-03-21T16:23:55;101134.72;;;13.61;72.20
29417;BME280;28421;51.030;4.006;2023-03-21T16:26:31;101127.34;;;13.70;71.70
29417;BME280;28421;51.030;4.006;2023-03-21T16:28:57;101130.53;;;13.73;71.69
29417;BME280;28421;51.030;4.006;2023-03-21T16:31:25;101117.84;;;13.59;71.32
29417;BME280;28421;51.030;4.006;2023-03-21T16:33:51;101114.97;;;13.60;71.66
29417;BME280;28421;51.030;4.006;2023-03-21T16:36:23;101124.53;;;13.63;71.15
29417;BME280;28421;51.030;4.006;2023-03-21T16:38:50;101131.81;;;13.62;71.63
29417;BME280;28421;51.030;4.006;2023-03-21T16:41:17;101106.66;;;13.62;70.95
29417;BME280;28421;51.030;4.006;2023-03-21T16:43:42;101134.63;;;13.84;71.04
29417;BME280;28421;51.030;4.006;2023-03-21T16:46:11;101143.66;;;13.91;71.12
29417;BME280;28421;51.030;4.006;2023-03-21T16:48:38;101149.72;;;13.93;70.90
29417;BME280;28421;51.030;4.006;2023-03-21T16:51:03;101125.94;;;13.88;70.76
29417;BME280;28421;51.030;4.006;2023-03-21T16:53:29;101155.97;;;14.08;70.63
29417;BME280;28421;51.030;4.006;2023-03-21T16:55:54;101138.47;;;13.89;71.24
29417;BME280;28421;51.030;4.006;2023-03-21T16:58:27;101138.00;;;13.86;71.57
29417;BME280;28421;51.030;4.006;2023-03-21T17:00:52;101149.28;;;13.89;71.62
29417;BME280;28421;51.030;4.006;2023-03-21T17:03:18;101150.00;;;13.83;71.64
29417;BME280;28421;51.030;4.006;2023-03-21T17:05:43;101158.97;;;13.99;71.78
29417;BME280;28421;51.030;4.006;2023-03-21T17:08:14;101125.28;;;13.72;71.63
29417;BME280;28421;51.030;4.006;2023-03-21T17:10:40;101141.50;;;13.72;71.85
29417;BME280;28421;51.030;4.006;2023-03-21T17:13:05;101104.97;;;13.46;71.90
29417;BME280;28421;51.030;4.006;2023-03-21T17:15:31;101127.25;;;13.63;71.71
29417;BME280;28421;51.030;4.006;2023-03-21T17:17:57;101161.25;;;13.72;71.92
29417;BME280;28421;51.030;4.006;2023-03-21T17:20:26;101121.56;;;13.58;71.88
29417;BME280;28421;51.030;4.006;2023-03-21T17:22:53;101147.38;;;13.60;72.11
29417;BME280;28421;51.030;4.006;2023-03-21T17:25:19;101149.13;;;13.53;71.96
29417;BME280;28421;51.030;4.006;2023-03-21T17:27:45;101149.13;;;13.53;71.66
29417;BME280;28421;51.030;4.006;2023-03-21T17:30:25;101152.78;;;13.60;71.33
29417;BME280;28421;51.030;4.006;2023-03-21T17:32:51;101135.03;;;13.43;71.39
29417;BME280;28421;51.030;4.006;2023-03-21T17:35:17;101133.66;;;13.32;71.24
29417;BME280;28421;51.030;4.006;2023-03-21T17:37:44;101124.06;;;13.22;71.49
29417;BME280;28421;51.030;4.006;2023-03-21T17:40:20;101165.44;;;13.45;71.29
29417;BME280;28421;51.030;4.006;2023-03-21T17:42:47;101118.03;;;13.19;71.15
29417;BME280;28421;51.030;4.006;2023-03-21T17:45:12;101134.97;;;13.36;71.38
29417;BME280;28421;51.030;4.006;2023-03-21T17:47:38;101133.53;;;13.26;71.59
29417;BME280;28421;51.030;4.006;2023-03-21T17:50:05;101123.25;;;13.21;71.63
29417;BME280;28421;51.030;4.006;2023-03-21T17:52:30;101126.38;;;13.10;72.12
29417;BME280;28421;51.030;4.006;2023-03-21T17:54:56;101145.53;;;13.23;72.23
29417;BME280;28421;51.030;4.006;2023-03-21T17:57:21;101116.50;;;13.02;72.43
29417;BME280;28421;51.030;4.006;2023-03-21T17:59:46;101143.81;;;13.22;72.29
29417;BME280;28421;51.030;4.006;2023-03-21T18:02:12;101126.50;;;13.16;72.67
29417;BME280;28421;51.030;4.006;2023-03-21T18:04:37;101129.53;;;13.13;72.68
29417;BME280;28421;51.030;4.006;2023-03-21T18:11:48;101120.78;;;12.42;76.15
29417;BME280;28421;51.030;4.006;2023-03-21T18:14:47;101160.22;;;12.43;77.36
29417;BME280;28421;51.030;4.006;2023-03-21T18:17:15;101157.06;;;12.40;78.67
29417;BME280;28421;51.030;4.006;2023-03-21T18:19:48;101142.50;;;12.10;80.07
29417;BME280;28421;51.030;4.006;2023-03-21T18:22:44;101140.38;;;11.97;81.04
29417;BME280;28421;51.030;4.006;2023-03-21T18:25:16;101180.72;;;12.22;80.91
29417;BME280;28421;51.030;4.006;2023-03-21T18:27:45;101157.16;;;12.15;81.38
29417;BME280;28421;51.030;4.006;2023-03-21T18:30:53;101164.22;;;12.16;80.92
29417;BME280;28421;51.030;4.006;2023-03-21T18:37:08;101148.94;;;12.09;79.76
29417;BME280;28421;51.030;4.006;2023-03-21T18:39:35;101153.41;;;12.25;79.54
29417;BME280;28421;51.030;4.006;2023-03-21T18:42:01;101145.84;;;12.20;79.34
29417;BME280;28421;51.030;4.006;2023-03-21T18:44:27;101104.69;;;11.95;79.32
29417;BME280;28421;51.030;4.006;2023-03-21T18:46:54;101112.56;;;12.05;79.06
29417;BME280;28421;51.030;4.006;2023-03-21T18:49:22;101112.22;;;12.08;79.13
29417;BME280;28421;51.030;4.006;2023-03-21T18:51:48;101177.06;;;12.46;78.73
29417;BME280;28421;51.030;4.006;2023-03-21T18:54:14;101155.88;;;12.34;78.34
29417;BME280;28421;51.030;4.006;2023-03-21T18:56:40;101135.06;;;12.20;78.31
29417;BME280;28421;51.030;4.006;2023-03-21T18:59:07;101155.31;;;12.16;77.75
29417;BME280;28421;51.030;4.006;2023-03-21T19:01:33;101143.88;;;12.06;78.03
29417;BME280;28421;51.030;4.006;2023-03-21T19:04:00;101173.50;;;12.14;77.93
29417;BME280;28421;51.030;4.006;2023-03-21T19:06:26;101137.22;;;11.85;77.76
29417;BME280;28421;51.030;4.006;2023-03-21T19:08:51;101168.53;;;11.94;77.18
29417;BME280;28421;51.030;4.006;2023-03-21T19:11:17;101141.63;;;11.70;76.62
29417;BME280;28421;51.030;4.006;2023-03-21T19:13:49;101144.47;;;11.60;76.66
29417;BME280;28421;51.030;4.006;2023-03-21T19:16:16;101172.06;;;11.79;76.25
29417;BME280;28421;51.030;4.006;2023-03-21T19:18:42;101177.81;;;11.84;75.90
29417;BME280;28421;51.030;4.006;2023-03-21T19:21:07;101150.22;;;11.65;75.47
29417;BME280;28421;51.030;4.006;2023-03-21T19:23:33;101143.84;;;11.58;73.99
29417;BME280;28421;51.030;4.006;2023-03-21T19:25:58;101166.50;;;11.80;73.62
29417;BME280;28421;51.030;4.006;2023-03-21T19:28:24;101167.19;;;11.82;73.31
29417;BME280;28421;51.030;4.006;2023-03-21T19:30:49;101144.66;;;11.67;72.49
29417;BME280;28421;51.030;4.006;2023-03-21T19:33:15;101177.59;;;11.77;72.16